Bookmark and Share
Track history (hours):
 

Drifting buoy 62910

Last reported at 2012-Oct-28 22:43 UTC. Time now 2014-Apr-20 03:17 UTC.
Position N 32°44' W 021°55'.
Warning: this ship's position is years out of date!

Water temperature 22.7 ° C

NotesDate/timePositionNaut miles runAvg speedWind from/ knotsBaromVisibWave heightAir tempDewpointWater temp
2012-Oct-28 22:43N 32°44' W 021°55'0 0.0 22.7
2012-Oct-28 17:55N 32°44' W 021°55'0 0.0 22.8
2012-Oct-28 06:39N 32°44' W 021°55'7 0.3 22.7
2012-Oct-27 06:58N 32°43' W 022°03'0 0.0 22.7
2012-Oct-27 02:27N 32°43' W 022°03'1 0.1
2012-Oct-26 18:41N 32°43' W 022°04'0 0.0 22.7
2012-Oct-26 16:37N 32°43' W 022°04'0 0.2 22.7
2012-Oct-26 15:50N 32°43' W 022°04'3 2.9 22.7
2012-Oct-26 14:56N 32°43' W 022°07'0 0.0 22.7
2012-Oct-26 11:58N 32°43' W 022°07'0 0.0 22.7
2012-Oct-26 10:41N 32°43' W 022°07'432.1 22.7
2012-Oct-26 10:33N 32°44' W 022°12'0 0.0 22.7
2012-Oct-26 07:59N 32°44' W 022°12'0 0.0 22.7
2012-Oct-26 06:51N 32°44' W 022°12'0 0.0 22.7
2012-Oct-26 05:47N 32°44' W 022°12'4 3.0 22.7
2012-Oct-26 04:25N 32°44' W 022°17'0 0.0 22.7
2012-Oct-26 03:27N 32°44' W 022°17'2 0.3
2012-Oct-25 22:02N 32°44' W 022°19'119.9 22.7
2012-Oct-25 21:58N 32°43' W 022°21'0 0.0 22.7
2012-Oct-25 19:46N 32°43' W 022°21'1 1.3 22.7
2012-Oct-25 19:04N 32°44' W 022°20'0 0.0 22.7
2012-Oct-25 17:29N 32°44' W 022°20'1 0.9 22.8
2012-Oct-25 16:50N 32°44' W 022°21'1 0.7 22.8
2012-Oct-25 15:57N 32°45' W 022°21'2 2.4 22.8
2012-Oct-25 15:02N 32°45' W 022°24'2 3.3 22.8
2012-Oct-25 14:18N 32°47' W 022°26'2 0.6 22.8
2012-Oct-25 10:45N 32°47' W 022°29'0 0.0 22.7
2012-Oct-25 10:36N 32°47' W 022°29'0 0.0 22.7
2012-Oct-25 10:01N 32°47' W 022°29'0 0.0 22.7
2012-Oct-25 07:51N 32°47' W 022°29'2 2.3 22.7
2012-Oct-25 07:02N 32°47' W 022°31'0 0.0 22.7
2012-Oct-25 05:25N 32°47' W 022°31'0 2.8 22.7
2012-Oct-25 05:16N 32°47' W 022°31'0 0.0 22.7
2012-Oct-25 04:36N 32°47' W 022°31'212.1 22.7
2012-Oct-25 04:28N 32°48' W 022°33'0 0.0 22.7
2012-Oct-25 03:42N 32°48' W 022°33'3 0.7 22.7
2012-Oct-25 00:02N 32°48' W 022°36'4 2.4 22.6
2012-Oct-24 22:26N 32°51' W 022°39'0 0.0 22.5
2012-Oct-24 22:16N 32°51' W 022°39'0 0.0
2012-Oct-24 20:08N 32°51' W 022°39'0 0.0 22.5
2012-Oct-24 17:51N 32°51' W 022°39'0 0.0 22.6
2012-Oct-24 17:01N 32°51' W 022°39'1 0.8 22.6
2012-Oct-24 16:08N 32°51' W 022°40'2 1.6 22.6
2012-Oct-24 15:11N 32°52' W 022°41'0 0.0
2012-Oct-24 14:30N 32°52' W 022°41'3 1.8 22.6
2012-Oct-24 12:39N 32°54' W 022°44'0 0.0
2012-Oct-24 11:06N 32°54' W 022°44'1 5.0 22.5
2012-Oct-24 11:00N 32°54' W 022°44'4 8.5 22.5
2012-Oct-24 10:29N 32°56' W 022°48'0 0.0 22.5
2012-Oct-24 08:10N 32°56' W 022°48'0 0.0 22.5
2012-Oct-24 06:33N 32°56' W 022°48'0 2.4 22.6
2012-Oct-24 06:27N 32°56' W 022°49'0 0.0 22.6
2012-Oct-24 05:36N 32°56' W 022°49'1 8.1 22.6
2012-Oct-24 05:31N 32°56' W 022°49'0 0.0 22.6
2012-Oct-24 04:50N 32°56' W 022°49'0 0.0 22.6
2012-Oct-24 04:46N 32°56' W 022°49'1 1.4 22.6
2012-Oct-24 03:55N 32°57' W 022°51'0 0.0 22.6
2012-Oct-24 03:08N 32°57' W 022°51'443.9 22.6
2012-Oct-24 03:03N 32°59' W 022°54'0 0.0 22.6
2012-Oct-24 00:23N 32°59' W 022°54'0 0.0 22.6
2012-Oct-23 22:45N 32°59' W 022°54'0 3.5 22.6
2012-Oct-23 22:38N 32°60' W 022°53'0 0.0 22.6
2012-Oct-23 20:58N 32°60' W 022°53'2 4.9 22.6
2012-Oct-23 20:34N 33°01' W 022°55'0 0.0 22.6
2012-Oct-23 18:17N 33°01' W 022°55'1 0.4 22.6
2012-Oct-23 17:08N 33°01' W 022°55'1 1.5 22.6
2012-Oct-23 16:31N 33°02' W 022°56'1 4.6 22.6
2012-Oct-23 16:21N 33°02' W 022°57'111.5 22.6
2012-Oct-23 16:17N 33°02' W 022°56'1 1.0 22.6
2012-Oct-23 15:30N 33°02' W 022°57'2 2.9 22.6
2012-Oct-23 14:41N 33°05' W 022°57'0 0.0 22.6
2012-Oct-23 13:05N 33°05' W 022°57'226.9 22.6
2012-Oct-23 13:00N 33°06' W 022°60'0 0.0 22.6
2012-Oct-23 11:27N 33°06' W 022°60'340.6 22.6
2012-Oct-23 11:22N 33°08' W 023°02'0 0.0 22.6
2012-Oct-23 08:35N 33°08' W 023°02'0 0.0 22.6
2012-Oct-23 05:49N 33°08' W 023°02'1 1.5 22.5
2012-Oct-23 04:56N 33°09' W 023°03'0 0.0 22.5
2012-Oct-23 04:06N 33°09' W 023°03'0 0.0 22.5
2012-Oct-23 03:17N 33°09' W 023°03'3 0.6 22.5
2012-Oct-22 23:07N 33°12' W 023°05'110.5 22.4
2012-Oct-22 23:00N 33°13' W 023°06'0 0.0 22.4
2012-Oct-22 22:51N 33°13' W 023°06'0 0.0 22.4
2012-Oct-22 21:21N 33°13' W 023°06'1 4.2 22.4
2012-Oct-22 21:11N 33°13' W 023°05'4 1.5 22.4
2012-Oct-22 18:39N 33°15' W 023°08'1 1.0 22.4
2012-Oct-22 17:22N 33°16' W 023°10'0 0.0 22.3
2012-Oct-22 16:30N 33°16' W 023°10'2 2.9 22.3
2012-Oct-22 15:39N 33°18' W 023°11'0 0.0 22.3
2012-Oct-22 14:54N 33°18' W 023°11'0 0.0 22.3
2012-Oct-22 13:24N 33°18' W 023°11'0 0.2 22.3
2012-Oct-22 11:42N 33°18' W 023°11'0 2.4 22.3
2012-Oct-22 11:39N 33°18' W 023°11'0 0.0 22.3
2012-Oct-22 11:28N 33°18' W 023°11'1 6.5 22.3
2012-Oct-22 11:18N 33°19' W 023°12'0 0.3 22.3
2012-Oct-22 10:03N 33°19' W 023°12'0 0.0 22.3
2012-Oct-22 09:48N 33°19' W 023°12'216.1 22.3
2012-Oct-22 09:40N 33°21' W 023°13'0 0.0 22.3
2012-Oct-22 07:54N 33°21' W 023°13'0 0.0 22.3
2012-Oct-22 07:23N 33°21' W 023°13'1 0.7 22.3
2012-Oct-22 05:59N 33°22' W 023°14'114.3 22.3
2012-Oct-22 05:55N 33°23' W 023°15'0 0.0 22.3
2012-Oct-22 05:43N 33°23' W 023°15'0 0.0 22.3
2012-Oct-22 05:09N 33°23' W 023°15'0 4.7
2012-Oct-22 05:06N 33°23' W 023°15'1 0.7 22.2
2012-Oct-22 04:15N 33°23' W 023°15'0 5.8
2012-Oct-22 04:13N 33°23' W 023°15'0 0.0 22.3
2012-Oct-22 03:28N 33°23' W 023°15'224.7 22.3
2012-Oct-22 03:23N 33°25' W 023°16'0 0.0 22.3
2012-Oct-21 23:27N 33°25' W 023°16'1 9.1 22.3
2012-Oct-21 23:23N 33°26' W 023°16'0 0.0 22.3
2012-Oct-21 23:01N 33°26' W 023°16'0 0.3 22.3
2012-Oct-21 21:45N 33°26' W 023°16'2 5.2 22.3
2012-Oct-21 21:22N 33°28' W 023°16'0 0.0 22.3
2012-Oct-21 19:34N 33°28' W 023°16'1 2.1 22.2
2012-Oct-21 19:01N 33°29' W 023°17'0 0.0 22.2
2012-Oct-21 17:33N 33°29' W 023°17'115.6 22.2
2012-Oct-21 17:28N 33°30' W 023°17'0 0.0 22.2
2012-Oct-21 17:23N 33°30' W 023°17'0 0.0 22.2
2012-Oct-21 16:41N 33°30' W 023°17'0 0.0 22.2
2012-Oct-21 15:52N 33°30' W 023°17'1 0.9 22.2
2012-Oct-21 15:03N 33°31' W 023°18'2 0.6 22.2
2012-Oct-21 12:08N 33°32' W 023°19'0 2.7 22.2
2012-Oct-21 12:01N 33°33' W 023°19'0 0.2 22.2
2012-Oct-21 11:40N 33°33' W 023°19'0 1.8 22.2
2012-Oct-21 11:35N 33°33' W 023°19'1 1.2 22.2
2012-Oct-21 10:23N 33°34' W 023°19'0 1.1 22.2
2012-Oct-21 10:01N 33°34' W 023°19'2 0.8 22.2
2012-Oct-21 07:47N 33°36' W 023°19'1 0.7 22.2
2012-Oct-21 06:10N 33°37' W 023°20'0 1.2 22.2
2012-Oct-21 06:07N 33°37' W 023°20'0 5.6 22.2
2012-Oct-21 06:02N 33°37' W 023°20'0 0.0 22.2
2012-Oct-21 05:16N 33°37' W 023°20'116.4 22.2
2012-Oct-21 05:13N 33°38' W 023°20'0 0.0 22.2
2012-Oct-21 04:29N 33°38' W 023°20'1 8.7 22.2
2012-Oct-21 04:24N 33°38' W 023°20'3 4.0 22.2
2012-Oct-21 03:32N 33°41' W 023°21'0 0.0 22.2
2012-Oct-20 23:48N 33°41' W 023°21'0 0.0 22.2
2012-Oct-20 23:43N 33°41' W 023°21'1 2.1 22.2
2012-Oct-20 23:14N 33°42' W 023°21'0 0.0 22.2
2012-Oct-20 22:05N 33°42' W 023°21'3 6.7 22.2
2012-Oct-20 21:42N 33°44' W 023°22'0 0.0 22.2
2012-Oct-20 21:33N 33°44' W 023°22'0 0.0 22.2
2012-Oct-20 17:50N 33°44' W 023°22'0 0.0 22.2
2012-Oct-20 17:42N 33°44' W 023°22'2 1.2 22.2
2012-Oct-20 16:03N 33°46' W 023°22'1 1.6 22.2
2012-Oct-20 15:12N 33°48' W 023°23'0 0.0 22.2
2012-Oct-20 13:32N 33°48' W 023°23'1 0.7 22.2
2012-Oct-20 12:29N 33°48' W 023°22'0 0.7 22.2
2012-Oct-20 12:25N 33°48' W 023°22'123.6 22.2
2012-Oct-20 12:22N 33°49' W 023°22'0 0.0 22.2
2012-Oct-20 11:48N 33°49' W 023°22'0 0.1 22.2
2012-Oct-20 10:47N 33°49' W 023°22'0 7.8 22.2
2012-Oct-20 10:44N 33°50' W 023°22'0 0.0 22.2
2012-Oct-20 10:23N 33°50' W 023°22'0 1.3 22.2
2012-Oct-20 10:11N 33°50' W 023°22'211.7 22.2
2012-Oct-20 10:03N 33°51' W 023°22'0 0.0 22.2
2012-Oct-20 08:09N 33°51' W 023°22'2 0.9 22.2
2012-Oct-20 06:24N 33°53' W 023°23'0 0.8 22.2
2012-Oct-20 06:18N 33°53' W 023°23'1 1.5 22.2
2012-Oct-20 05:26N 33°54' W 023°23'0 0.0 22.2
2012-Oct-20 04:42N 33°54' W 023°23'0 0.0 22.2
2012-Oct-20 04:37N 33°54' W 023°23'1 1.1 22.2
2012-Oct-20 03:51N 33°54' W 023°23'110.9 22.2
2012-Oct-20 03:43N 33°55' W 023°24'2 0.6 22.2
2012-Oct-20 00:07N 33°57' W 023°23'2 3.4 22.2
2012-Oct-19 23:26N 33°59' W 023°21'0 0.0 22.2
2012-Oct-19 22:29N 33°59' W 023°21'0 0.0 22.2
2012-Oct-19 22:18N 33°59' W 023°21'0 0.0
2012-Oct-19 22:05N 33°59' W 023°21'0 0.0 22.2
2012-Oct-19 21:47N 33°59' W 023°21'0 0.0 22.2
2012-Oct-19 18:45N 33°59' W 023°21'0 0.0 22.3
2012-Oct-19 18:13N 33°59' W 023°21'014.4 22.3
2012-Oct-19 18:11N 33°59' W 023°21'0 0.6 22.3
2012-Oct-19 17:55N 33°59' W 023°21'1 0.6 22.3
2012-Oct-19 16:33N 34°00' W 023°21'0 0.0 22.3
2012-Oct-19 16:17N 34°00' W 023°21'1 0.7 22.3
2012-Oct-19 15:24N 34°00' W 023°21'1 0.6 22.3
2012-Oct-19 14:32N 34°01' W 023°21'1 1.0 22.3
2012-Oct-19 13:43N 34°01' W 023°21'1 1.0 22.2
2012-Oct-19 12:44N 34°02' W 023°21'0 0.0 22.2
2012-Oct-19 12:00N 34°02' W 023°21'118.0 22.2
2012-Oct-19 11:57N 34°03' W 023°21'0 0.0 22.2
2012-Oct-19 11:10N 34°03' W 023°21'0 3.5 22.2
2012-Oct-19 11:02N 34°04' W 023°20'0 0.0 22.2
2012-Oct-19 10:47N 34°04' W 023°20'0 0.0 22.2
2012-Oct-19 10:24N 34°04' W 023°20'2 1.3 22.2
2012-Oct-19 08:33N 34°06' W 023°20'0 0.0 22.2
2012-Oct-19 06:58N 34°06' W 023°20'0 0.2 22.2
2012-Oct-19 06:29N 34°06' W 023°20'1 1.1 22.2
2012-Oct-19 05:35N 34°07' W 023°20'0 0.0 22.2
2012-Oct-19 05:14N 34°07' W 023°20'0 0.0 22.2
2012-Oct-19 04:52N 34°07' W 023°20'0 0.5 22.2
2012-Oct-19 04:02N 34°08' W 023°20'0 1.4 22.2
2012-Oct-19 03:55N 34°08' W 023°19'0 0.0 22.2
2012-Oct-19 02:17N 34°08' W 023°19'3 1.5 22.2
2012-Oct-19 00:21N 34°09' W 023°17'0 0.0 22.2
2012-Oct-18 22:48N 34°09' W 023°17'0 0.0 22.3
2012-Oct-18 22:43N 34°09' W 023°17'  

Dump ship's entire track history

sailing weather and tide predictions

Buoy 62910